createdAt,value
2023-02-18T00:02:32.632Z,13.4
2023-02-18T00:07:31.989Z,19.2
2023-02-18T00:12:31.341Z,16.8
2023-02-18T00:17:30.692Z,13.4
2023-02-18T00:22:29.986Z,13.5
2023-02-18T00:27:29.303Z,18
2023-02-18T00:32:28.646Z,18.2
2023-02-18T00:37:27.954Z,16.7
2023-02-18T00:42:27.287Z,22.8
2023-02-18T00:47:26.625Z,18.1
2023-02-18T00:52:25.955Z,20.2
2023-02-18T00:57:25.243Z,19
2023-02-18T01:02:24.600Z,19.6
2023-02-18T01:07:23.952Z,17.1
2023-02-18T01:12:23.330Z,22.4
2023-02-18T01:17:22.650Z,19
2023-02-18T01:22:22.003Z,22.4
2023-02-18T01:27:21.353Z,16.5
2023-02-18T01:32:20.740Z,23.5
2023-02-18T01:37:19.984Z,22.5
2023-02-18T01:42:19.284Z,21.1
2023-02-18T01:47:18.662Z,19.3
2023-02-18T01:52:17.928Z,18.6
2023-02-18T01:57:17.274Z,18.9
2023-02-18T02:02:16.604Z,20.4
2023-02-18T02:07:15.920Z,23.4
2023-02-18T02:12:15.175Z,22.4
2023-02-18T02:17:14.492Z,22.4
2023-02-18T02:22:13.798Z,25.4
2023-02-18T02:27:13.042Z,22.8
2023-02-18T02:32:12.342Z,19.6
2023-02-18T02:37:11.674Z,22.6
2023-02-18T02:42:10.965Z,23.8
2023-02-18T02:47:10.254Z,21.6
2023-02-18T02:52:09.559Z,22.5
2023-02-18T02:57:08.825Z,23.9
2023-02-18T03:02:08.121Z,25.4
2023-02-18T03:07:07.420Z,20.5
2023-02-18T03:12:06.692Z,22.7
2023-02-18T03:17:05.970Z,20.9
2023-02-18T03:22:05.273Z,24.9
2023-02-18T03:27:04.560Z,13.1
2023-02-18T03:32:03.912Z,16.4
2023-02-18T03:37:03.141Z,20.6
2023-02-18T03:42:02.383Z,20.1
2023-02-18T03:47:01.658Z,20.7
2023-02-18T03:52:00.956Z,22.7
2023-02-18T03:57:00.227Z,24.5
2023-02-18T04:01:59.463Z,26.7
2023-02-18T04:06:58.744Z,27.7
2023-02-18T04:11:58.016Z,20.3
2023-02-18T04:16:57.391Z,37.8
2023-02-18T04:21:56.557Z,25.1
2023-02-18T04:26:55.803Z,24.2
2023-02-18T04:31:55.224Z,38.4
2023-02-18T04:36:54.386Z,42.6
2023-02-18T04:41:53.657Z,69.7
2023-02-18T04:46:52.933Z,29.6
2023-02-18T04:51:52.194Z,32.5
2023-02-18T04:56:51.488Z,28.1
2023-02-18T05:01:50.785Z,45.1
2023-02-18T05:06:50.079Z,17.6
2023-02-18T05:11:49.393Z,22.6
2023-02-18T05:16:48.667Z,26.9
2023-02-18T05:21:48.014Z,20.9
2023-02-18T05:26:47.264Z,19.2
2023-02-18T05:31:46.703Z,19.1
2023-02-18T05:36:45.839Z,22.9
2023-02-18T05:41:03.435Z,22.9
2023-02-18T05:41:46.170Z,11.8
2023-02-18T05:46:44.480Z,17.2
2023-02-18T05:51:43.758Z,15.5
2023-02-18T05:56:43.010Z,18.2
2023-02-18T06:01:42.240Z,25.3
2023-02-18T06:06:41.516Z,25.9
2023-02-18T06:11:40.809Z,16.3
2023-02-18T06:16:40.093Z,18.3
2023-02-18T06:21:39.361Z,23.1
2023-02-18T06:26:38.597Z,19.8
2023-02-18T06:31:37.979Z,22.5
2023-02-18T06:36:37.108Z,10.1
2023-02-18T06:41:36.423Z,21
2023-02-18T06:46:35.818Z,19.5
2023-02-18T06:51:35.027Z,20.8
2023-02-18T06:56:34.280Z,25.5
2023-02-18T07:01:33.552Z,21.5
2023-02-18T07:06:32.904Z,22.7
2023-02-18T07:11:32.161Z,24.6
2023-02-18T07:16:31.493Z,19.3
2023-02-18T07:21:30.760Z,20.8
2023-02-18T07:26:30.069Z,30.4
2023-02-18T07:31:29.529Z,20.2
2023-02-18T07:36:28.718Z,27.5
2023-02-18T07:41:27.993Z,22.2
2023-02-18T07:46:27.283Z,22.3
2023-02-18T07:51:26.535Z,32.6
2023-02-18T07:56:25.806Z,31.5
2023-02-18T08:01:25.077Z,28.4
2023-02-18T08:06:24.320Z,27.9
2023-02-18T08:11:23.646Z,25.8
2023-02-18T08:16:22.921Z,27.6
2023-02-18T08:21:22.216Z,29
2023-02-18T08:26:21.512Z,26.1
2023-02-18T08:31:20.971Z,27.6
2023-02-18T08:36:20.068Z,26.6
2023-02-18T08:41:19.308Z,34.1
2023-02-18T08:46:25.402Z,24.6
2023-02-18T08:51:17.965Z,28.5
2023-02-18T08:56:17.188Z,25.1
2023-02-18T09:01:16.493Z,27.4
2023-02-18T09:06:15.749Z,37.8
2023-02-18T09:11:15.107Z,25.8
2023-02-18T09:16:14.438Z,38
2023-02-18T09:21:13.721Z,30.3
2023-02-18T09:26:13.017Z,62
2023-02-18T09:31:12.864Z,75.2
2023-02-18T09:36:11.697Z,102
2023-02-18T09:41:11.196Z,72.1
2023-02-18T09:46:10.351Z,80.7
2023-02-18T09:51:09.981Z,69.7
2023-02-18T09:56:09.004Z,75.7
2023-02-18T10:01:08.636Z,42.6
2023-02-18T10:06:08.030Z,45.9
2023-02-18T10:11:07.431Z,44.8
2023-02-18T10:16:06.525Z,37.5
2023-02-18T10:21:06.047Z,31.4
2023-02-18T10:26:05.078Z,32.4
2023-02-18T10:31:04.535Z,27.2
2023-02-18T10:36:03.796Z,33.6
2023-02-18T10:41:03.255Z,40.4
2023-02-18T10:46:02.595Z,46.4
2023-02-18T10:51:02.007Z,39.8
2023-02-18T10:56:01.487Z,40.1
2023-02-18T11:01:00.882Z,39.5
2023-02-18T11:06:00.223Z,42
2023-02-18T11:10:59.609Z,31.1
2023-02-18T11:15:58.993Z,26.3
2023-02-18T11:20:58.414Z,30
2023-02-18T11:25:57.782Z,37.1
2023-02-18T11:30:57.261Z,41.1
2023-02-18T11:35:56.586Z,36.9
2023-02-18T11:40:56.044Z,42.3
2023-02-18T11:45:55.423Z,41
2023-02-18T11:50:54.878Z,28.7
2023-02-18T11:55:54.286Z,23.6
2023-02-18T12:00:53.794Z,28
2023-02-18T12:05:53.180Z,34.8
2023-02-18T12:10:52.645Z,22
2023-02-18T12:15:52.042Z,33.7
2023-02-18T12:20:51.543Z,22.2
2023-02-18T12:25:50.946Z,32.6
2023-02-18T12:32:33.619Z,26.7
2023-02-18T12:35:49.826Z,34.2
2023-02-18T12:40:49.216Z,28
2023-02-18T12:45:48.741Z,25.7
2023-02-18T12:50:48.146Z,27.9
2023-02-18T12:55:47.635Z,31.5
2023-02-18T13:00:47.030Z,33.5
2023-02-18T13:05:46.486Z,26.4
2023-02-18T13:10:46.007Z,29.8
2023-02-18T13:15:45.545Z,29.2
2023-02-18T13:20:44.998Z,29.2
2023-02-18T13:25:44.350Z,26.9
2023-02-18T13:30:43.888Z,27.4
2023-02-18T13:35:43.310Z,24.6
2023-02-18T13:40:42.778Z,27.4
2023-02-18T13:45:42.266Z,34.3
2023-02-18T13:50:41.731Z,26.9
2023-02-18T13:55:41.154Z,35
2023-02-18T14:00:40.614Z,40.6
2023-02-18T14:05:40.101Z,41.1
2023-02-18T14:10:39.615Z,33.6
2023-02-18T14:15:39.118Z,29.6
2023-02-18T14:20:38.555Z,54.5
2023-02-18T14:25:37.998Z,37.1
2023-02-18T14:30:37.480Z,29
2023-02-18T14:35:36.908Z,36.9
2023-02-18T14:40:36.367Z,31.5
2023-02-18T14:48:16.716Z,34
2023-02-18T14:50:35.286Z,95.8
2023-02-18T14:55:34.730Z,87.1
2023-02-18T15:00:34.201Z,118
2023-02-18T15:05:33.645Z,164.7
2023-02-18T15:10:33.140Z,124.5
2023-02-18T15:15:32.579Z,100.3
2023-02-18T15:20:31.976Z,43.6
2023-02-18T15:25:31.417Z,32.8
2023-02-18T15:30:31.086Z,36
2023-02-18T15:35:30.345Z,36.8
2023-02-18T15:40:29.707Z,32.8
2023-02-18T15:45:29.137Z,35.1
2023-02-18T15:50:28.521Z,32.3
2023-02-18T15:55:27.964Z,31.1
2023-02-18T16:00:27.417Z,31.8
2023-02-18T16:05:26.773Z,33.2
2023-02-18T16:10:26.142Z,25.3
2023-02-18T16:15:25.515Z,28.9
2023-02-18T16:20:24.932Z,29.8
2023-02-18T16:25:24.303Z,25.5
2023-02-18T16:30:23.658Z,30
2023-02-18T16:35:23.044Z,27.7
2023-02-18T16:40:22.374Z,32
2023-02-18T16:45:21.770Z,31.7
2023-02-18T16:50:21.088Z,32.3
2023-02-18T16:55:20.362Z,28.9
2023-02-18T17:00:19.666Z,34.6
2023-02-18T17:05:26.549Z,36.3
2023-02-18T17:10:18.354Z,38.5
2023-02-18T17:15:17.680Z,44
2023-02-18T17:20:17.009Z,34.4
2023-02-18T17:25:16.327Z,40.7
2023-02-18T17:30:15.694Z,46.2
2023-02-18T17:35:14.971Z,38.9
2023-02-18T17:40:14.275Z,39.6
2023-02-18T17:45:15.001Z,31.5
2023-02-18T17:50:12.901Z,64
2023-02-18T17:55:12.191Z,47.1
2023-02-18T18:00:11.488Z,48.1
2023-02-18T18:05:10.818Z,48.9
2023-02-18T18:10:10.150Z,46.2
2023-02-18T18:15:09.414Z,53
2023-02-18T18:20:08.689Z,43.2
2023-02-18T18:25:08.001Z,49.8
2023-02-18T18:30:07.319Z,41.1
2023-02-18T18:35:06.500Z,41.3
2023-02-18T18:40:05.822Z,42.3
2023-02-18T18:45:05.032Z,39.3
2023-02-18T18:50:04.348Z,37.7
2023-02-18T18:55:03.670Z,60.1
2023-02-18T19:00:02.932Z,70.6
2023-02-18T19:05:02.257Z,52.9
2023-02-18T19:10:01.548Z,45.7
2023-02-18T19:15:00.848Z,53.6
2023-02-18T19:20:00.166Z,87.3
2023-02-18T19:24:59.445Z,75.1
2023-02-18T19:29:58.764Z,76.1
2023-02-18T19:34:58.121Z,47
2023-02-18T19:39:57.420Z,40.4
2023-02-18T19:44:56.712Z,41.4
2023-02-18T19:49:55.969Z,52.9
2023-02-18T19:54:55.271Z,52.6
2023-02-18T19:59:54.607Z,41.2
2023-02-18T20:04:53.953Z,34.8
2023-02-18T20:09:53.171Z,33.2
2023-02-18T20:14:43.129Z,33.2
2023-02-18T20:14:52.462Z,27.8
2023-02-18T20:19:51.735Z,28.6
2023-02-18T20:24:51.006Z,30.3
2023-02-18T20:29:50.284Z,28
2023-02-18T20:34:49.556Z,36.1
2023-02-18T20:39:48.896Z,35.1
2023-02-18T20:44:48.136Z,35.6
2023-02-18T20:49:47.391Z,32.7
2023-02-18T20:54:46.743Z,31.3
2023-02-18T20:59:46.048Z,20.2
2023-02-18T21:04:45.318Z,23.1
2023-02-18T21:09:44.676Z,24.6
2023-02-18T21:14:43.931Z,21
2023-02-18T21:19:43.275Z,24.5
2023-02-18T21:24:42.605Z,37.1
2023-02-18T21:29:42.018Z,28.7
2023-02-18T21:34:41.173Z,24.4
2023-02-18T21:39:40.430Z,49.9
2023-02-18T21:44:42.607Z,32.8
2023-02-18T21:49:39.011Z,36.8
2023-02-18T21:54:38.272Z,26.9
2023-02-18T21:59:37.558Z,29.2
2023-02-18T22:04:36.978Z,30.1
2023-02-18T22:09:36.061Z,26.5
2023-02-18T22:14:35.358Z,47.8
2023-02-18T22:19:34.590Z,37.2
2023-02-18T22:24:33.807Z,35.6
2023-02-18T22:29:33.065Z,45.2
2023-02-18T22:34:32.282Z,35.9
2023-02-18T22:39:31.519Z,33.5
2023-02-18T22:44:30.744Z,30.2
2023-02-18T22:49:29.966Z,41
2023-02-18T22:54:29.214Z,62.6
2023-02-18T22:59:28.472Z,50.4
2023-02-18T23:04:27.662Z,39.5
2023-02-18T23:09:26.874Z,47.5
2023-02-18T23:14:26.056Z,41.1
2023-02-18T23:19:25.306Z,39.5
2023-02-18T23:24:24.493Z,28.7
2023-02-18T23:29:23.747Z,19.6
2023-02-18T23:34:22.964Z,21.3
2023-02-18T23:39:22.182Z,21.9
2023-02-18T23:44:21.374Z,19.4
2023-02-18T23:49:20.623Z,25.4
2023-02-18T23:54:19.865Z,24.3
2023-02-18T23:59:19.083Z,18.1
